Time;durP1;ratioP1;P1;durP2;ratioP2;P2;SDS_P1;SDS_P2;PMS_P1;PMS_P2;Temp;Humidity;BMP_temperature;BMP_pressure;BME280_temperature;BME280_humidity;BME280_pressure;Samples;Min_cycle;Max_cycle;Signal;HPM_P1;HPM_P2
2022/11/08 00:02:05;;;;;;;25.30;12.10;;;;;;;5.11;100.00;99687.67;100599;1341;24432;-36
2022/11/08 00:04:31;;;;;;;21.60;11.90;;;;;;;5.05;100.00;99688.77;100474;1336;22615;-36
2022/11/08 00:14:23;;;;;;;18.20;11.00;;;;;;;4.86;100.00;99692.80;100555;1340;24383;-36
2022/11/08 00:16:49;;;;;;;14.60;9.30;;;;;;;4.82;100.00;99693.39;100570;1333;23126;-36
2022/11/08 00:19:15;;;;;;;29.00;12.70;;;;;;;4.75;100.00;99697.64;100529;1333;22889;-34
2022/11/08 00:21:40;;;;;;;17.40;10.30;;;;;;;4.68;100.00;99699.07;100580;1336;23214;-31
2022/11/08 00:24:06;;;;;;;17.30;10.20;;;;;;;4.65;100.00;99702.34;100516;1341;24488;-34
2022/11/08 00:26:32;;;;;;;28.30;13.10;;;;;;;4.57;100.00;99702.25;100586;1333;23117;-36
2022/11/08 00:28:57;;;;;;;33.40;14.90;;;;;;;4.50;100.00;99710.40;100612;1341;22740;-36
2022/11/08 00:31:24;;;;;;;27.30;15.20;;;;;;;4.43;100.00;99709.98;100566;1340;23138;-36
2022/11/08 00:33:49;;;;;;;48.30;19.50;;;;;;;4.36;100.00;99709.80;100581;1333;22568;-36
2022/11/08 00:36:15;;;;;;;24.80;14.20;;;;;;;4.28;100.00;99706.15;100644;1341;25399;-32
2022/11/08 00:38:42;;;;;;;36.30;19.90;;;;;;;4.20;100.00;99701.47;100545;1333;22896;-36
2022/11/08 00:41:08;;;;;;;27.70;13.70;;;;;;;4.12;100.00;99697.06;100519;1338;24454;-32
2022/11/08 00:43:34;;;;;;;31.20;18.00;;;;;;;4.07;100.00;99704.11;100571;1333;23243;-33
2022/11/08 00:45:59;;;;;;;43.30;19.40;;;;;;;4.01;100.00;99703.83;100525;1333;22740;-36
2022/11/08 00:48:25;;;;;;;39.70;15.70;;;;;;;3.94;100.00;99704.95;100518;1341;24358;-31
2022/11/08 00:50:50;;;;;;;34.30;15.10;;;;;;;3.91;100.00;99709.05;100515;1341;22581;-31
2022/11/08 00:53:16;;;;;;;44.70;17.90;;;;;;;3.89;100.00;99708.20;100537;1341;23244;-31
2022/11/08 00:55:41;;;;;;;37.70;18.60;;;;;;;3.88;100.00;99708.45;100469;1340;25371;-31
2022/11/08 00:58:07;;;;;;;33.40;14.70;;;;;;;3.86;100.00;99712.73;100512;1341;23103;-32
2022/11/08 01:00:32;;;;;;;37.70;15.00;;;;;;;3.84;100.00;99718.52;100615;1341;24432;-32
2022/11/08 01:05:27;;;;;;;33.60;15.80;;;;;;;3.77;100.00;99723.11;100499;1333;24421;-32
2022/11/08 01:07:52;;;;;;;20.00;10.60;;;;;;;3.74;100.00;99722.66;100538;1341;24497;-35
2022/11/08 01:10:18;;;;;;;35.40;15.50;;;;;;;3.74;100.00;99718.19;100549;1341;22875;-32
2022/11/08 01:12:44;;;;;;;21.40;11.90;;;;;;;3.73;100.00;99715.30;100570;1341;22749;-32
2022/11/08 01:15:09;;;;;;;27.80;14.00;;;;;;;3.72;100.00;99719.16;100496;1334;23176;-32
2022/11/08 01:17:35;;;;;;;15.10;10.70;;;;;;;3.70;100.00;99720.59;100607;1340;22898;-35
2022/11/08 01:20:00;;;;;;;20.50;11.60;;;;;;;3.68;100.00;99717.88;100587;1341;23090;-35
2022/11/08 01:22:26;;;;;;;27.60;14.30;;;;;;;3.67;100.00;99718.70;100498;1339;22878;-33
2022/11/08 01:24:51;;;;;;;21.70;12.50;;;;;;;3.69;100.00;99718.36;100551;1334;22881;-36
2022/11/08 01:27:17;;;;;;;27.50;15.20;;;;;;;3.71;100.00;99714.46;100544;1341;23206;-36
2022/11/08 01:29:42;;;;;;;35.30;16.70;;;;;;;3.73;100.00;99716.52;100599;1334;22879;-33
2022/11/08 01:32:09;;;;;;;14.30;8.70;;;;;;;3.75;100.00;99716.38;100558;1339;24383;-36
2022/11/08 01:34:35;;;;;;;30.60;12.30;;;;;;;3.78;100.00;99715.98;100535;1341;23056;-35
2022/11/08 01:37:00;;;;;;;19.80;9.20;;;;;;;3.78;100.00;99707.63;100514;1334;23243;-33
2022/11/08 01:39:26;;;;;;;16.30;10.50;;;;;;;3.77;100.00;99706.68;100467;1341;22897;-31
2022/11/08 01:41:51;;;;;;;26.60;15.80;;;;;;;3.76;100.00;99709.39;100558;1341;24449;-36
2022/11/08 01:44:17;;;;;;;20.30;10.30;;;;;;;3.74;100.00;99710.41;100607;1334;22754;-31
2022/11/08 01:46:44;;;;;;;24.90;12.10;;;;;;;3.72;100.00;99706.55;100553;1341;24419;-37
2022/11/08 01:49:13;;;;;;;20.20;11.20;;;;;;;3.68;100.00;99704.83;100659;1340;22895;-32
2022/11/08 01:51:45;;;;;;;22.20;10.80;;;;;;;3.66;100.00;99705.17;100600;1341;24336;-32
2022/11/08 01:54:12;;;;;;;29.30;13.30;;;;;;;3.64;100.00;99707.13;100570;1334;22501;-32
2022/11/08 01:56:38;;;;;;;21.70;11.30;;;;;;;3.63;100.00;99716.11;100641;1333;22900;-31
2022/11/08 01:59:05;;;;;;;18.10;11.10;;;;;;;3.60;100.00;99721.85;100581;1341;24362;-32
2022/11/08 02:01:31;;;;;;;19.20;11.70;;;;;;;3.57;100.00;99723.95;100551;1340;22740;-32
2022/11/08 02:03:56;;;;;;;20.30;12.10;;;;;;;3.50;100.00;99724.41;100494;1341;22888;-35
2022/11/08 02:06:22;;;;;;;24.10;13.20;;;;;;;3.44;100.00;99720.67;100489;1341;24808;-31
2022/11/08 02:08:47;;;;;;;19.10;10.70;;;;;;;3.42;100.00;99724.04;100513;1337;23114;-35
2022/11/08 02:11:14;;;;;;;30.20;15.70;;;;;;;3.42;100.00;99722.83;100583;1333;22510;-34
2022/11/08 02:13:40;;;;;;;20.80;11.40;;;;;;;3.41;100.00;99726.30;100601;1341;23216;-31
2022/11/08 02:16:09;;;;;;;16.80;8.70;;;;;;;3.42;100.00;99723.89;100578;1341;24453;-31
2022/11/08 02:18:35;;;;;;;23.70;15.60;;;;;;;3.42;100.00;99730.56;100618;1333;22528;-34
2022/11/08 02:21:04;;;;;;;31.60;16.60;;;;;;;3.41;100.00;99729.79;100522;1340;24412;-36
2022/11/08 02:23:37;;;;;;;23.30;11.90;;;;;;;3.38;100.00;99733.11;100579;1341;23326;-34
2022/11/08 02:26:02;;;;;;;22.30;14.20;;;;;;;3.34;100.00;99740.63;100523;1341;22627;-35
2022/11/08 02:28:28;;;;;;;22.30;14.20;;;;;;;3.30;100.00;99741.47;100560;1341;24497;-31
2022/11/08 02:30:53;;;;;;;31.90;16.50;;;;;;;3.28;100.00;99738.26;100560;1340;23108;-35
2022/11/08 02:33:21;;;;;;;25.50;15.10;;;;;;;3.27;100.00;99737.52;100510;1333;23221;-36
2022/11/08 02:35:49;;;;;;;26.70;17.50;;;;;;;3.27;100.00;99738.51;100554;1333;22748;-35
2022/11/08 02:38:15;;;;;;;18.50;10.90;;;;;;;3.30;100.00;99745.39;100612;1341;23350;-36
2022/11/08 02:40:48;;;;;;;22.90;12.90;;;;;;;3.30;100.00;99751.95;100499;1341;22751;-36
2022/11/08 02:43:15;;;;;;;21.60;13.00;;;;;;;3.32;100.00;99756.72;100583;1341;22510;-31
2022/11/08 02:45:40;;;;;;;13.90;8.40;;;;;;;3.32;100.00;99759.71;100534;1341;26676;-31
2022/11/08 02:48:06;;;;;;;29.10;14.60;;;;;;;3.36;100.00;99761.67;100522;1341;26582;-35
2022/11/08 02:50:32;;;;;;;27.40;14.80;;;;;;;3.40;100.00;99749.90;100543;1341;25356;-31
2022/11/08 02:52:57;;;;;;;25.90;12.60;;;;;;;3.42;100.00;99739.89;100568;1341;22752;-32
2022/11/08 02:55:23;;;;;;;15.50;9.10;;;;;;;3.43;100.00;99729.48;100536;1334;24315;-31
2022/11/08 02:57:48;;;;;;;22.40;13.60;;;;;;;3.42;100.00;99717.19;100593;1332;23129;-35
2022/11/08 03:00:14;;;;;;;34.00;16.40;;;;;;;3.41;100.00;99711.43;100506;1342;24382;-32
2022/11/08 03:02:40;;;;;;;37.70;17.30;;;;;;;3.44;100.00;99710.75;100504;1340;23107;-36
2022/11/08 03:05:07;;;;;;;;;;;;;;;3.46;100.00;99709.55;100564;1326;22486;-33
2022/11/08 03:07:32;;;;;;;13.70;8.60;;;;;;;3.47;100.00;99716.18;100580;1341;24542;-33
2022/11/08 03:09:58;;;;;;;18.10;8.70;;;;;;;3.47;100.00;99728.54;100589;1342;23090;-36
2022/11/08 03:12:23;;;;;;;22.80;12.00;;;;;;;3.48;100.00;99736.27;100560;1334;23235;-36
2022/11/08 03:14:49;;;;;;;14.90;10.10;;;;;;;3.48;100.00;99747.09;100527;1341;23243;-36
2022/11/08 03:17:14;;;;;;;9.80;6.80;;;;;;;3.47;100.00;99759.36;100507;1341;24383;-33
2022/11/08 03:19:40;;;;;;;28.30;15.20;;;;;;;3.45;100.00;99758.16;100508;1334;22899;-36
2022/11/08 03:22:05;;;;;;;7.40;6.70;;;;;;;3.42;100.00;99752.54;100540;1335;22881;-32
2022/11/08 03:24:32;;;;;;;25.90;14.30;;;;;;;3.39;100.00;99749.88;100607;1333;24395;-38
2022/11/08 03:26:59;;;;;;;38.30;18.50;;;;;;;3.35;100.00;99750.02;100568;1341;24492;-35
2022/11/08 03:29:24;;;;;;;45.00;22.80;;;;;;;3.31;100.00;99752.20;100562;1334;22878;-35
2022/11/08 03:31:50;;;;;;;32.70;18.30;;;;;;;3.26;100.00;99750.16;100575;1341;24489;-32
2022/11/08 03:34:15;;;;;;;30.70;16.50;;;;;;;3.21;100.00;99749.91;100558;1341;22748;-32
2022/11/08 03:36:41;;;;;;;29.80;16.50;;;;;;;3.16;100.00;99750.33;100496;1339;22917;-32
2022/11/08 03:39:06;;;;;;;45.80;20.00;;;;;;;3.14;100.00;99748.46;100503;1341;24881;-36
2022/11/08 03:41:32;;;;;;;29.40;14.10;;;;;;;3.12;100.00;99745.64;100596;1341;23220;-36
2022/11/08 03:43:58;;;;;;;35.50;18.40;;;;;;;3.11;100.00;99741.33;100539;1340;23116;-32
2022/11/08 03:46:23;;;;;;;31.80;18.90;;;;;;;3.12;100.00;99742.99;100546;1342;24362;-32
2022/11/08 03:48:49;;;;;;;30.20;19.20;;;;;;;3.12;100.00;99742.40;100557;1342;23067;-33
2022/11/08 03:51:14;;;;;;;25.80;13.70;;;;;;;3.12;100.00;99744.55;100585;1341;23252;-32
2022/11/08 03:53:40;;;;;;;29.80;15.80;;;;;;;3.11;100.00;99748.89;100431;1342;22494;-35
2022/11/08 03:56:06;;;;;;;41.00;18.80;;;;;;;3.09;100.00;99748.73;100514;1341;22767;-33
2022/11/08 03:58:32;;;;;;;27.60;17.60;;;;;;;3.07;100.00;99747.16;100524;1340;23105;-35
2022/11/08 04:01:02;;;;;;;38.20;17.70;;;;;;;3.06;100.00;99745.14;100615;1344;23019;-35
2022/11/08 04:03:27;;;;;;;34.30;15.30;;;;;;;3.04;100.00;99742.83;100627;1342;22749;-32
2022/11/08 04:05:54;;;;;;;47.10;20.70;;;;;;;3.02;100.00;99742.04;100576;1333;22894;-31
2022/11/08 04:08:20;;;;;;;31.90;17.50;;;;;;;3.02;100.00;99744.73;100261;1346;499913;-32
2022/11/08 04:10:46;;;;;;;39.10;22.20;;;;;;;2.99;100.00;99746.22;100478;1328;23055;-32
2022/11/08 04:15:40;;;;;;;35.90;17.90;;;;;;;2.99;100.00;99746.42;100629;1340;22857;-36
2022/11/08 04:23:06;;;;;;;34.50;20.80;;;;;;;2.85;100.00;99741.56;100570;1340;22889;-33
2022/11/08 04:25:32;;;;;;;46.70;31.70;;;;;;;2.82;100.00;99740.92;100562;1348;22757;-31
2022/11/08 04:27:57;;;;;;;37.90;27.20;;;;;;;2.80;100.00;99737.15;100563;1342;22509;-35
2022/11/08 04:30:23;;;;;;;54.80;32.50;;;;;;;2.77;100.00;99735.85;100537;1346;22686;-35
2022/11/08 04:32:48;;;;;;;35.70;21.50;;;;;;;2.78;100.00;99732.42;100608;1348;25147;-32
2022/11/08 04:35:15;;;;;;;41.10;17.50;;;;;;;2.83;100.00;99724.77;100543;1343;24374;-35
2022/11/08 04:37:40;;;;;;;38.80;19.10;;;;;;;2.89;100.00;99728.81;100566;1342;23107;-32
2022/11/08 04:40:07;;;;;;;45.00;23.00;;;;;;;2.96;100.00;99729.59;100564;1346;24564;-32
2022/11/08 04:42:33;;;;;;;29.80;17.10;;;;;;;3.00;100.00;99729.73;100574;1346;23196;-31
2022/11/08 04:44:59;;;;;;;39.30;17.20;;;;;;;3.05;100.00;99726.58;100526;1333;23254;-32
2022/11/08 04:47:26;;;;;;;29.90;18.20;;;;;;;3.08;100.00;99726.16;100587;1346;23373;-34
2022/11/08 04:49:53;;;;;;;47.00;22.10;;;;;;;3.08;100.00;99730.59;100630;1343;22525;-35
2022/11/08 04:52:19;;;;;;;31.90;18.50;;;;;;;3.05;100.00;99734.36;100403;1348;22751;-36
2022/11/08 04:54:45;;;;;;;35.50;19.20;;;;;;;3.02;100.00;99735.84;100526;1348;23103;-33
2022/11/08 04:57:11;;;;;;;19.30;10.70;;;;;;;3.03;100.00;99733.15;100552;1340;25766;-33
2022/11/08 04:59:36;;;;;;;27.20;17.20;;;;;;;2.98;100.00;99732.72;100520;1327;22750;-36
2022/11/08 05:02:02;;;;;;;22.70;14.10;;;;;;;2.93;100.00;99733.17;100572;1334;24191;-32
2022/11/08 05:04:27;;;;;;;22.20;12.10;;;;;;;2.91;100.00;99735.20;100521;1334;23105;-33
2022/11/08 05:06:53;;;;;;;35.90;20.40;;;;;;;2.88;100.00;99744.42;100507;1346;23093;-31
2022/11/08 05:09:19;;;;;;;31.90;19.50;;;;;;;2.88;100.00;99751.73;100525;1332;23187;-35
2022/11/08 05:11:44;;;;;;;27.20;17.70;;;;;;;2.85;100.00;99748.61;100651;1341;23106;-31
2022/11/08 05:14:10;;;;;;;32.90;19.60;;;;;;;2.83;100.00;99750.42;100530;1338;24361;-41
2022/11/08 05:16:35;;;;;;;56.00;20.60;;;;;;;2.80;100.00;99748.67;100477;1333;24334;-33
2022/11/08 05:19:01;;;;;;;34.50;18.30;;;;;;;2.78;100.00;99745.81;100537;1346;24475;-33
2022/11/08 05:23:56;;;;;;;42.70;20.30;;;;;;;2.78;100.00;99747.81;100555;1348;22527;-36
2022/11/08 05:26:22;;;;;;;36.70;16.90;;;;;;;2.80;100.00;99746.00;100527;1341;22764;-36
2022/11/08 05:28:48;;;;;;;28.20;15.40;;;;;;;2.84;100.00;99751.34;100530;1340;23093;-36
2022/11/08 05:31:13;;;;;;;28.30;15.90;;;;;;;2.84;100.00;99760.94;100567;1340;22500;-36
2022/11/08 05:33:39;;;;;;;43.50;19.30;;;;;;;2.85;100.00;99760.45;100518;1337;22774;-33
2022/11/08 05:36:09;;;;;;;20.70;11.40;;;;;;;2.86;100.00;99759.88;100546;1340;23339;-36
2022/11/08 05:38:35;;;;;;;43.30;19.90;;;;;;;2.86;100.00;99756.47;100553;1348;24370;-33
2022/11/08 05:41:02;;;;;;;36.80;19.70;;;;;;;2.84;100.00;99760.85;100569;1341;24489;-35
2022/11/08 05:43:28;;;;;;;32.60;16.80;;;;;;;2.78;100.00;99764.77;100596;1340;23194;-31
2022/11/08 05:45:54;;;;;;;26.10;13.50;;;;;;;2.71;100.00;99764.55;100426;1342;24315;-31
2022/11/08 05:48:19;;;;;;;34.40;18.10;;;;;;;2.64;100.00;99765.85;100531;1341;23093;-32
2022/11/08 05:50:45;;;;;;;33.70;17.00;;;;;;;2.61;100.00;99764.00;100515;1348;24651;-35
2022/11/08 05:53:10;;;;;;;32.60;15.70;;;;;;;2.61;100.00;99765.93;100561;1342;25372;-31
2022/11/08 05:55:36;;;;;;;33.90;17.60;;;;;;;2.62;100.00;99769.37;100602;1345;23228;-32
2022/11/08 05:58:02;;;;;;;27.50;13.70;;;;;;;2.63;100.00;99777.64;100446;1348;22578;-32
2022/11/08 06:00:27;;;;;;;29.10;17.80;;;;;;;2.64;100.00;99790.09;100518;1342;24325;-32
2022/11/08 06:02:53;;;;;;;35.10;18.10;;;;;;;2.67;100.00;99793.88;100513;1341;22630;-33
2022/11/08 06:05:19;;;;;;;24.80;14.70;;;;;;;2.70;100.00;99796.57;100530;1326;24348;-32
2022/11/08 06:07:45;;;;;;;25.60;14.60;;;;;;;2.75;100.00;99792.09;100536;1341;23112;-33
2022/11/08 06:10:10;;;;;;;33.50;19.40;;;;;;;2.79;100.00;99791.70;100538;1337;22900;-36
2022/11/08 06:12:37;;;;;;;31.80;18.00;;;;;;;2.86;100.00;99799.09;100583;1339;24414;-36
2022/11/08 06:15:04;;;;;;;37.90;17.50;;;;;;;2.92;100.00;99801.16;100580;1337;22531;-36
2022/11/08 06:17:30;;;;;;;37.60;18.80;;;;;;;2.97;100.00;99801.64;100634;1340;22496;-36
2022/11/08 06:19:56;;;;;;;34.20;17.80;;;;;;;2.99;100.00;99801.77;100450;1341;22503;-32
2022/11/08 06:22:22;;;;;;;34.10;19.10;;;;;;;3.05;100.00;99806.70;100563;1343;23109;-35
2022/11/08 06:24:47;;;;;;;36.50;18.70;;;;;;;3.09;100.00;99807.66;100547;1342;23262;-36
2022/11/08 06:27:14;;;;;;;39.80;21.50;;;;;;;3.13;100.00;99807.80;100615;1337;22881;-36
2022/11/08 06:29:41;;;;;;;26.60;15.10;;;;;;;3.19;100.00;99809.92;100446;1345;22864;-33
2022/11/08 06:32:09;;;;;;;34.80;17.80;;;;;;;3.23;100.00;99812.20;100558;1346;23102;-34
2022/11/08 06:34:34;;;;;;;33.30;17.30;;;;;;;3.27;100.00;99817.79;100671;1345;24312;-31
2022/11/08 06:37:01;;;;;;;47.50;18.70;;;;;;;3.35;100.00;99820.29;100584;1334;22763;-32
2022/11/08 06:39:27;;;;;;;35.50;19.30;;;;;;;3.39;100.00;99822.59;100510;1341;24368;-32
2022/11/08 06:41:52;;;;;;;27.70;14.60;;;;;;;3.46;100.00;99823.56;100477;1340;23689;-35
2022/11/08 06:44:18;;;;;;;46.70;25.30;;;;;;;3.51;100.00;99822.02;100538;1342;22896;-35
2022/11/08 06:46:44;;;;;;;47.30;25.30;;;;;;;3.56;100.00;99821.17;100558;1334;22934;-32
2022/11/08 06:49:10;;;;;;;38.80;21.50;;;;;;;3.66;100.00;99825.23;100571;1334;22778;-37
2022/11/08 06:51:35;;;;;;;27.50;16.80;;;;;;;3.74;100.00;99830.50;100584;1340;25170;-33
2022/11/08 06:54:02;;;;;;;30.90;17.00;;;;;;;3.82;100.00;99834.38;100531;1346;23024;-36
2022/11/08 06:56:28;;;;;;;37.80;15.70;;;;;;;3.89;100.00;99832.48;100614;1345;22748;-33
2022/11/08 06:58:54;;;;;;;37.20;21.00;;;;;;;3.99;100.00;99833.30;100556;1338;22914;-33
2022/11/08 07:01:19;;;;;;;38.80;19.60;;;;;;;4.07;100.00;99835.63;100533;1342;22781;-33
2022/11/08 07:03:45;;;;;;;25.10;12.80;;;;;;;4.15;100.00;99832.84;100405;1346;23114;-36
2022/11/08 07:06:10;;;;;;;39.20;20.60;;;;;;;4.23;100.00;99830.32;100548;1346;22765;-32
2022/11/08 07:08:36;;;;;;;83.20;36.50;;;;;;;4.33;100.00;99831.88;100501;1341;22748;-36
2022/11/08 07:11:01;;;;;;;86.10;38.00;;;;;;;4.41;100.00;99833.95;100550;1340;22875;-36
2022/11/08 07:13:27;;;;;;;84.60;37.60;;;;;;;4.50;100.00;99837.35;100483;1343;22974;-35
2022/11/08 07:15:56;;;;;;;70.10;33.70;;;;;;;4.66;100.00;99837.55;100561;1342;22555;-33
2022/11/08 07:18:21;;;;;;;58.60;33.00;;;;;;;4.91;100.00;99844.73;100622;1326;23105;-33
2022/11/08 07:20:47;;;;;;;46.90;22.30;;;;;;;5.17;100.00;99847.85;100547;1341;22747;-33
2022/11/08 07:23:13;;;;;;;49.70;28.60;;;;;;;5.43;100.00;99845.86;100533;1342;22754;-36
2022/11/08 07:25:38;;;;;;;56.40;30.20;;;;;;;5.72;100.00;99836.72;100580;1339;22891;-34
2022/11/08 07:28:05;;;;;;;63.10;33.30;;;;;;;6.03;100.00;99831.83;100480;1341;24386;-36
2022/11/08 07:30:31;;;;;;;39.20;23.10;;;;;;;6.29;100.00;99829.34;100634;1340;22889;-32
2022/11/08 07:32:57;;;;;;;49.50;28.00;;;;;;;6.57;100.00;99820.99;100534;1341;22514;-35
2022/11/08 07:35:23;;;;;;;34.10;21.10;;;;;;;6.81;100.00;99801.70;100534;1334;24312;-36
2022/11/08 07:37:50;;;;;;;30.30;19.80;;;;;;;7.04;100.00;99778.61;100633;1342;22939;-36
2022/11/08 07:40:15;;;;;;;27.60;19.30;;;;;;;7.28;100.00;99741.64;100621;1345;25655;-34
2022/11/08 07:42:41;;;;;;;16.30;11.70;;;;;;;7.54;100.00;99715.67;100572;1341;23118;-37
2022/11/08 07:45:08;;;;;;;16.50;9.70;;;;;;;7.68;100.00;99703.39;100619;1335;23226;-37
2022/11/08 07:47:33;;;;;;;15.30;9.30;;;;;;;7.72;100.00;99672.48;100624;1333;23234;-37
2022/11/08 07:49:59;;;;;;;18.00;10.50;;;;;;;7.81;100.00;99669.64;100554;1334;23094;-36
2022/11/08 07:52:25;;;;;;;19.10;7.50;;;;;;;7.88;100.00;99663.46;100575;1340;22856;-35
2022/11/08 07:54:50;;;;;;;21.10;9.10;;;;;;;7.95;100.00;99658.70;100560;1341;22635;-35
2022/11/08 07:57:16;;;;;;;14.70;7.10;;;;;;;7.97;100.00;99660.79;100540;1341;23191;-34
2022/11/08 07:59:42;;;;;;;14.30;8.50;;;;;;;7.99;100.00;99637.32;100548;1341;22882;-32
2022/11/08 08:02:09;;;;;;;17.90;9.70;;;;;;;8.03;100.00;99641.52;100615;1334;22880;-38
2022/11/08 08:04:35;;;;;;;15.90;8.30;;;;;;;8.04;100.00;99651.36;100578;1339;22778;-33
2022/11/08 08:07:00;;;;;;;9.20;7.70;;;;;;;8.26;100.00;99656.04;100570;1342;24362;-36
2022/11/08 08:09:26;;;;;;;16.70;9.70;;;;;;;8.43;100.00;99664.08;100529;1341;22971;-33
2022/11/08 08:11:52;;;;;;;13.00;8.30;;;;;;;8.49;100.00;99663.27;100568;1340;22999;-36
2022/11/08 08:14:18;;;;;;;11.10;7.60;;;;;;;8.65;100.00;99672.23;100625;1340;22751;-35
2022/11/08 08:16:43;;;;;;;8.70;6.00;;;;;;;8.99;100.00;99678.27;100621;1330;23180;-34
2022/11/08 08:19:09;;;;;;;13.20;8.90;;;;;;;9.41;100.00;99661.74;100594;1341;22866;-35
2022/11/08 08:21:34;;;;;;;14.90;6.90;;;;;;;9.84;100.00;99649.58;100505;1334;23253;-38
2022/11/08 08:24:00;;;;;;;16.90;10.10;;;;;;;10.17;100.00;99628.08;100581;1341;22875;-36
2022/11/08 08:26:26;;;;;;;9.80;7.20;;;;;;;10.38;100.00;99624.02;100590;1334;22723;-37
2022/11/08 08:28:51;;;;;;;6.80;5.70;;;;;;;10.57;100.00;99603.64;100550;1334;23235;-37
2022/11/08 08:31:17;;;;;;;8.60;7.00;;;;;;;10.84;100.00;99635.02;100562;1334;23014;-35
2022/11/08 08:33:42;;;;;;;13.40;8.00;;;;;;;11.06;100.00;99659.12;100466;1341;23250;-37
2022/11/08 08:36:08;;;;;;;9.00;6.30;;;;;;;11.15;100.00;99659.50;100570;1341;23213;-35
2022/11/08 08:38:34;;;;;;;6.80;4.60;;;;;;;11.32;100.00;99623.88;100567;1341;22761;-37
2022/11/08 08:41:00;;;;;;;8.00;6.10;;;;;;;11.58;100.00;99607.39;100540;1341;22759;-37
2022/11/08 08:43:27;;;;;;;21.60;6.40;;;;;;;11.84;100.00;99592.25;100587;1339;22726;-37
2022/11/08 08:45:53;;;;;;;8.40;7.10;;;;;;;12.12;100.00;99591.23;100568;1341;23099;-37
2022/11/08 08:48:20;;;;;;;10.20;7.10;;;;;;;12.25;100.00;99574.79;100571;1341;22502;-34
2022/11/08 08:50:46;;;;;;;6.60;5.40;;;;;;;12.48;100.00;99582.02;100527;1334;27761;-35
2022/11/08 08:53:11;;;;;;;8.60;6.00;;;;;;;12.67;100.00;99578.05;100591;1332;22758;-35
2022/11/08 08:55:38;;;;;;;6.60;4.80;;;;;;;12.84;100.00;99577.77;100474;1336;24490;-35
2022/11/08 08:58:04;;;;;;;6.20;5.30;;;;;;;13.00;100.00;99579.11;100580;1341;24450;-38
2022/11/08 09:00:31;;;;;;;12.30;6.30;;;;;;;13.13;100.00;99576.52;100565;1340;23346;-35
2022/11/08 09:03:01;;;;;;;5.10;3.90;;;;;;;13.26;100.00;99575.00;100597;1326;22762;-37
2022/11/08 09:05:27;;;;;;;7.90;4.70;;;;;;;13.37;100.00;99570.92;100575;1317;24296;-37
2022/11/08 09:07:54;;;;;;;7.40;5.60;;;;;;;13.52;100.00;99569.10;100539;1335;22891;-38
2022/11/08 09:10:19;;;;;;;5.20;4.20;;;;;;;13.61;100.00;99561.20;100635;1340;22532;-38
2022/11/08 09:12:45;;;;;;;;;;;;;;;13.54;97.98;99562.23;100642;1341;22479;-35
2022/11/08 09:15:11;;;;;;;7.20;5.00;;;;;;;13.27;99.26;99564.16;100648;1340;24420;-38
2022/11/08 09:17:36;;;;;;;12.50;4.90;;;;;;;13.19;99.82;99561.92;100521;1341;23347;-38
2022/11/08 09:20:02;;;;;;;17.40;5.50;;;;;;;13.16;100.00;99561.63;100535;1331;24453;-35
2022/11/08 09:22:28;;;;;;;8.00;4.50;;;;;;;13.26;99.85;99555.91;100487;1341;22532;-36
2022/11/08 09:24:53;;;;;;;5.00;3.90;;;;;;;13.53;99.51;99554.89;100549;1333;23003;-37
2022/11/08 09:27:19;;;;;;;5.10;3.70;;;;;;;13.74;97.40;99552.51;100486;1338;22895;-38
2022/11/08 09:29:44;;;;;;;6.90;4.00;;;;;;;13.83;97.17;99556.10;100539;1341;22550;-37
2022/11/08 09:32:10;;;;;;;6.10;3.70;;;;;;;13.92;97.36;99552.89;100553;1341;22880;-35
2022/11/08 09:34:35;;;;;;;6.90;4.90;;;;;;;14.20;96.49;99550.17;100397;1341;22742;-38
2022/11/08 09:37:01;;;;;;;5.40;3.40;;;;;;;14.53;95.02;99540.52;100516;1333;24324;-34
2022/11/08 09:39:28;;;;;;;5.40;4.20;;;;;;;14.68;93.29;99540.66;100521;1333;24477;-34
2022/11/08 09:41:58;;;;;;;5.70;3.70;;;;;;;14.94;93.80;99545.03;100585;1341;22464;-34
2022/11/08 09:44:29;;;;;;;8.10;5.30;;;;;;;15.28;92.45;99543.72;100609;1327;23243;-37
2022/11/08 09:46:56;;;;;;;5.80;4.20;;;;;;;15.37;86.44;99543.81;100654;1341;23104;-35
2022/11/08 09:49:28;;;;;;;4.40;3.20;;;;;;;15.63;85.50;99539.10;100611;1341;23219;-33
2022/11/08 09:51:53;;;;;;;13.00;3.70;;;;;;;15.81;80.13;99538.70;100565;1341;22606;-37
2022/11/08 09:54:22;;;;;;;14.10;4.50;;;;;;;15.59;78.54;99539.67;100477;1333;22853;-36
2022/11/08 09:56:48;;;;;;;4.20;2.30;;;;;;;15.48;80.12;99539.55;100485;1330;22536;-37
2022/11/08 09:59:26;;;;;;;4.80;3.30;;;;;;;15.53;80.48;99537.20;100460;1333;22497;-34
2022/11/08 10:01:52;;;;;;;3.10;2.00;;;;;;;15.78;78.01;99532.85;100553;1341;22774;-35
2022/11/08 10:04:21;;;;;;;17.00;2.70;;;;;;;15.91;76.07;99535.29;100578;1333;23117;-37
2022/11/08 10:06:51;;;;;;;4.20;2.00;;;;;;;15.97;76.88;99536.66;100524;1341;22481;-37
2022/11/08 10:09:17;;;;;;;3.30;2.80;;;;;;;16.30;73.40;99535.21;100519;1333;23243;-34
2022/11/08 10:11:47;;;;;;;4.40;2.30;;;;;;;16.41;71.60;99534.30;100565;1341;22546;-35
2022/11/08 10:14:21;;;;;;;4.30;2.40;;;;;;;16.43;72.60;99536.80;100559;1341;24314;-34
2022/11/08 10:16:50;;;;;;;3.40;2.20;;;;;;;16.71;69.98;99531.14;100567;1340;22517;-37
2022/11/08 10:19:23;;;;;;;7.60;2.60;;;;;;;16.85;69.51;99535.94;100595;1341;24374;-35
2022/11/08 10:21:52;;;;;;;3.70;1.70;;;;;;;16.87;66.15;99533.17;100564;1334;22568;-38
2022/11/08 10:24:22;;;;;;;1.90;1.30;;;;;;;16.70;67.41;99532.31;100565;1333;24380;-35
2022/11/08 10:26:47;;;;;;;6.40;2.70;;;;;;;16.60;68.70;99527.92;100580;1340;24497;-35
2022/11/08 10:29:19;;;;;;;3.90;1.70;;;;;;;16.75;65.52;99520.89;100474;1333;22892;-35
2022/11/08 10:31:46;;;;;;;5.90;1.70;;;;;;;16.67;64.15;99522.25;100546;1341;22742;-35
2022/11/08 10:34:16;;;;;;;4.80;2.10;;;;;;;16.73;65.87;99514.59;100605;1341;24411;-34
2022/11/08 10:36:44;;;;;;;4.10;3.30;;;;;;;17.05;64.93;99514.88;100599;1336;24383;-37
2022/11/08 10:39:15;;;;;;;5.90;2.20;;;;;;;17.38;65.60;99509.31;100625;1341;22741;-36
2022/11/08 10:41:47;;;;;;;2.90;1.70;;;;;;;17.72;64.76;99507.05;100622;1334;22689;-38
2022/11/08 10:44:14;;;;;;;6.20;2.70;;;;;;;18.20;64.40;99500.77;100604;1341;23915;-36
2022/11/08 10:46:42;;;;;;;2.20;1.50;;;;;;;18.38;64.09;99498.65;100571;1337;22931;-38
2022/11/08 10:49:12;;;;;;;8.90;1.80;;;;;;;18.33;60.02;99500.85;100577;1337;22901;-37
2022/11/08 10:51:37;;;;;;;1.60;0.80;;;;;;;18.02;58.27;99500.38;100646;1334;22725;-37
2022/11/08 10:54:03;;;;;;;7.60;2.10;;;;;;;17.78;59.98;99501.70;100485;1341;22718;-36
2022/11/08 10:56:28;;;;;;;2.90;1.70;;;;;;;18.22;60.23;99493.40;100520;1327;22777;-36
2022/11/08 10:58:54;;;;;;;1.90;1.20;;;;;;;18.67;60.05;99488.98;100526;1337;22736;-35
2022/11/08 11:01:21;;;;;;;2.80;1.10;;;;;;;19.05;58.26;99485.83;100581;1339;23051;-35
2022/11/08 11:03:47;;;;;;;4.20;1.80;;;;;;;18.98;54.59;99480.48;100536;1340;23103;-35
2022/11/08 11:06:20;;;;;;;3.00;1.50;;;;;;;18.95;54.32;99481.44;100569;1334;23030;-36
2022/11/08 11:08:50;;;;;;;6.20;1.20;;;;;;;19.09;53.61;99478.69;100604;1341;24230;-41
2022/11/08 11:11:24;;;;;;;4.70;1.60;;;;;;;19.19;51.50;99474.27;100535;1340;22868;-36
2022/11/08 11:13:57;;;;;;;3.40;1.20;;;;;;;18.96;52.20;99474.59;100582;1341;24417;-36
2022/11/08 11:16:22;;;;;;;5.00;1.50;;;;;;;19.00;52.99;99471.93;100543;1341;26510;-34
2022/11/08 11:18:49;;;;;;;3.00;1.10;;;;;;;18.89;52.00;99476.66;100519;1341;22746;-36
2022/11/08 11:21:16;;;;;;;2.00;1.00;;;;;;;18.72;51.72;99472.46;100517;1337;24358;-36
2022/11/08 11:23:48;;;;;;;3.00;1.20;;;;;;;18.69;50.67;99468.23;100592;1341;22518;-37
2022/11/08 11:26:20;;;;;;;2.20;1.30;;;;;;;18.39;51.64;99467.01;100660;1341;22610;-35
2022/11/08 11:28:53;;;;;;;0.70;0.70;;;;;;;18.63;50.55;99462.13;100596;1341;22637;-34
2022/11/08 11:31:18;;;;;;;2.30;1.20;;;;;;;18.60;51.05;99463.01;100586;1334;24289;-34